sensor_id;sensor_type;location;lat;lon;timestamp;temperature;humidity
73254;DHT22;61474;50.834;4.552;2022-08-19T00:01:43;27.70;48.90
73254;DHT22;61474;50.834;4.552;2022-08-19T00:04:12;27.70;49.00
73254;DHT22;61474;50.834;4.552;2022-08-19T00:06:39;27.70;48.90
73254;DHT22;61474;50.834;4.552;2022-08-19T00:09:07;27.70;48.90
73254;DHT22;61474;50.834;4.552;2022-08-19T00:11:34;27.70;48.80
73254;DHT22;61474;50.834;4.552;2022-08-19T00:14:01;27.70;48.90
73254;DHT22;61474;50.834;4.552;2022-08-19T00:16:27;27.70;48.90
73254;DHT22;61474;50.834;4.552;2022-08-19T00:18:55;27.60;48.90
73254;DHT22;61474;50.834;4.552;2022-08-19T00:21:22;27.60;49.00
73254;DHT22;61474;50.834;4.552;2022-08-19T00:23:48;27.60;49.00
73254;DHT22;61474;50.834;4.552;2022-08-19T00:26:14;27.60;49.10
73254;DHT22;61474;50.834;4.552;2022-08-19T00:28:39;27.60;49.10
73254;DHT22;61474;50.834;4.552;2022-08-19T00:31:06;27.60;49.20
73254;DHT22;61474;50.834;4.552;2022-08-19T00:33:33;27.60;49.00
73254;DHT22;61474;50.834;4.552;2022-08-19T00:36:00;27.50;49.30
73254;DHT22;61474;50.834;4.552;2022-08-19T00:38:25;27.60;49.20
73254;DHT22;61474;50.834;4.552;2022-08-19T00:40:52;27.50;49.30
73254;DHT22;61474;50.834;4.552;2022-08-19T00:43:23;27.50;49.50
73254;DHT22;61474;50.834;4.552;2022-08-19T00:45:49;27.50;49.30
73254;DHT22;61474;50.834;4.552;2022-08-19T00:48:16;27.50;49.50
73254;DHT22;61474;50.834;4.552;2022-08-19T00:50:43;27.60;49.40
73254;DHT22;61474;50.834;4.552;2022-08-19T00:53:15;27.60;49.30
73254;DHT22;61474;50.834;4.552;2022-08-19T00:55:45;27.60;49.50
73254;DHT22;61474;50.834;4.552;2022-08-19T00:58:16;27.60;49.60
73254;DHT22;61474;50.834;4.552;2022-08-19T01:00:43;27.60;49.80
73254;DHT22;61474;50.834;4.552;2022-08-19T01:03:12;27.60;49.20
73254;DHT22;61474;50.834;4.552;2022-08-19T01:05:41;27.50;49.20
73254;DHT22;61474;50.834;4.552;2022-08-19T01:08:08;27.60;49.40
73254;DHT22;61474;50.834;4.552;2022-08-19T01:10:38;27.50;49.10
73254;DHT22;61474;50.834;4.552;2022-08-19T01:13:04;27.50;49.10
73254;DHT22;61474;50.834;4.552;2022-08-19T01:15:33;27.50;49.00
73254;DHT22;61474;50.834;4.552;2022-08-19T01:18:07;27.50;49.30
73254;DHT22;61474;50.834;4.552;2022-08-19T01:20:33;27.50;49.00
73254;DHT22;61474;50.834;4.552;2022-08-19T01:23:00;27.50;49.10
73254;DHT22;61474;50.834;4.552;2022-08-19T01:25:45;27.50;49.10
73254;DHT22;61474;50.834;4.552;2022-08-19T01:28:17;27.50;49.40
73254;DHT22;61474;50.834;4.552;2022-08-19T01:30:43;27.60;49.30
73254;DHT22;61474;50.834;4.552;2022-08-19T01:33:09;27.60;49.30
73254;DHT22;61474;50.834;4.552;2022-08-19T01:35:35;27.60;49.30
73254;DHT22;61474;50.834;4.552;2022-08-19T01:38:05;27.60;49.20
73254;DHT22;61474;50.834;4.552;2022-08-19T01:40:34;27.60;49.40
73254;DHT22;61474;50.834;4.552;2022-08-19T01:43:00;27.60;48.90
73254;DHT22;61474;50.834;4.552;2022-08-19T01:45:29;27.60;49.30
73254;DHT22;61474;50.834;4.552;2022-08-19T01:47:55;27.60;48.90
73254;DHT22;61474;50.834;4.552;2022-08-19T01:50:21;27.60;49.20
73254;DHT22;61474;50.834;4.552;2022-08-19T01:52:47;27.60;48.90
73254;DHT22;61474;50.834;4.552;2022-08-19T01:55:15;27.60;49.10
73254;DHT22;61474;50.834;4.552;2022-08-19T01:57:47;27.60;49.40
73254;DHT22;61474;50.834;4.552;2022-08-19T02:00:16;27.60;49.00
73254;DHT22;61474;50.834;4.552;2022-08-19T02:02:42;27.60;49.00
73254;DHT22;61474;50.834;4.552;2022-08-19T02:05:08;27.60;49.10
73254;DHT22;61474;50.834;4.552;2022-08-19T02:07:35;27.60;49.00
73254;DHT22;61474;50.834;4.552;2022-08-19T02:10:04;27.60;48.90
73254;DHT22;61474;50.834;4.552;2022-08-19T02:12:30;27.60;49.00
73254;DHT22;61474;50.834;4.552;2022-08-19T02:14:55;27.60;49.30
73254;DHT22;61474;50.834;4.552;2022-08-19T02:17:21;27.50;48.70
73254;DHT22;61474;50.834;4.552;2022-08-19T02:19:46;27.50;48.90
73254;DHT22;61474;50.834;4.552;2022-08-19T02:22:13;27.50;49.10
73254;DHT22;61474;50.834;4.552;2022-08-19T02:24:38;27.50;48.90
73254;DHT22;61474;50.834;4.552;2022-08-19T02:27:04;27.50;49.00
73254;DHT22;61474;50.834;4.552;2022-08-19T02:29:31;27.50;49.00
73254;DHT22;61474;50.834;4.552;2022-08-19T02:31:56;27.50;49.10
73254;DHT22;61474;50.834;4.552;2022-08-19T02:34:22;27.50;49.20
73254;DHT22;61474;50.834;4.552;2022-08-19T02:36:47;27.50;49.20
73254;DHT22;61474;50.834;4.552;2022-08-19T02:39:13;27.60;49.00
73254;DHT22;61474;50.834;4.552;2022-08-19T02:41:38;27.60;49.30
73254;DHT22;61474;50.834;4.552;2022-08-19T02:44:04;27.60;49.10
73254;DHT22;61474;50.834;4.552;2022-08-19T02:46:31;27.60;49.10
73254;DHT22;61474;50.834;4.552;2022-08-19T02:49:02;27.60;49.00
73254;DHT22;61474;50.834;4.552;2022-08-19T02:51:33;27.60;49.20
73254;DHT22;61474;50.834;4.552;2022-08-19T02:53:59;27.60;49.30
73254;DHT22;61474;50.834;4.552;2022-08-19T02:56:26;27.60;49.00
73254;DHT22;61474;50.834;4.552;2022-08-19T02:58:56;27.50;49.20
73254;DHT22;61474;50.834;4.552;2022-08-19T03:01:31;27.60;49.00
73254;DHT22;61474;50.834;4.552;2022-08-19T03:03:59;27.50;49.20
73254;DHT22;61474;50.834;4.552;2022-08-19T03:06:25;27.60;49.20
73254;DHT22;61474;50.834;4.552;2022-08-19T03:08:51;27.60;49.30
73254;DHT22;61474;50.834;4.552;2022-08-19T03:11:19;27.60;49.10
73254;DHT22;61474;50.834;4.552;2022-08-19T03:13:46;27.60;49.00
73254;DHT22;61474;50.834;4.552;2022-08-19T03:16:15;27.50;49.00
73254;DHT22;61474;50.834;4.552;2022-08-19T03:18:41;27.50;49.00
73254;DHT22;61474;50.834;4.552;2022-08-19T03:21:07;27.40;49.20
73254;DHT22;61474;50.834;4.552;2022-08-19T03:23:33;27.40;49.20
73254;DHT22;61474;50.834;4.552;2022-08-19T03:25:58;27.40;49.00
73254;DHT22;61474;50.834;4.552;2022-08-19T03:28:24;27.50;49.30
73254;DHT22;61474;50.834;4.552;2022-08-19T03:31:05;27.50;49.20
73254;DHT22;61474;50.834;4.552;2022-08-19T03:33:33;27.50;49.10
73254;DHT22;61474;50.834;4.552;2022-08-19T03:36:08;27.40;49.10
73254;DHT22;61474;50.834;4.552;2022-08-19T03:38:46;27.40;49.30
73254;DHT22;61474;50.834;4.552;2022-08-19T03:41:15;27.40;49.50
73254;DHT22;61474;50.834;4.552;2022-08-19T03:43:42;27.30;49.50
73254;DHT22;61474;50.834;4.552;2022-08-19T03:46:13;27.40;49.70
73254;DHT22;61474;50.834;4.552;2022-08-19T03:48:41;27.40;49.70
73254;DHT22;61474;50.834;4.552;2022-08-19T03:51:08;27.40;49.70
73254;DHT22;61474;50.834;4.552;2022-08-19T03:53:40;27.40;49.50
73254;DHT22;61474;50.834;4.552;2022-08-19T03:56:08;27.40;49.50
73254;DHT22;61474;50.834;4.552;2022-08-19T03:58:34;27.30;49.40
73254;DHT22;61474;50.834;4.552;2022-08-19T04:01:00;27.30;49.60
73254;DHT22;61474;50.834;4.552;2022-08-19T04:03:26;27.30;49.70
73254;DHT22;61474;50.834;4.552;2022-08-19T04:05:54;27.30;49.60
73254;DHT22;61474;50.834;4.552;2022-08-19T04:08:20;27.30;49.60
73254;DHT22;61474;50.834;4.552;2022-08-19T04:10:48;27.40;49.80
73254;DHT22;61474;50.834;4.552;2022-08-19T04:13:17;27.40;49.50
73254;DHT22;61474;50.834;4.552;2022-08-19T04:15:45;27.30;49.50
73254;DHT22;61474;50.834;4.552;2022-08-19T04:18:12;27.40;49.70
73254;DHT22;61474;50.834;4.552;2022-08-19T04:20:40;27.30;49.60
73254;DHT22;61474;50.834;4.552;2022-08-19T04:23:06;27.30;49.50
73254;DHT22;61474;50.834;4.552;2022-08-19T04:25:37;27.40;49.50
73254;DHT22;61474;50.834;4.552;2022-08-19T04:28:03;27.40;49.40
73254;DHT22;61474;50.834;4.552;2022-08-19T04:30:28;27.40;49.50
73254;DHT22;61474;50.834;4.552;2022-08-19T04:32:54;27.40;49.40
73254;DHT22;61474;50.834;4.552;2022-08-19T04:35:19;27.40;49.30
73254;DHT22;61474;50.834;4.552;2022-08-19T04:37:45;27.40;49.50
73254;DHT22;61474;50.834;4.552;2022-08-19T04:40:11;27.40;49.40
73254;DHT22;61474;50.834;4.552;2022-08-19T04:42:55;27.40;49.30
73254;DHT22;61474;50.834;4.552;2022-08-19T04:45:21;27.40;49.20
73254;DHT22;61474;50.834;4.552;2022-08-19T04:47:47;27.40;49.20
73254;DHT22;61474;50.834;4.552;2022-08-19T04:50:13;27.40;49.40
73254;DHT22;61474;50.834;4.552;2022-08-19T04:52:39;27.40;49.70
73254;DHT22;61474;50.834;4.552;2022-08-19T04:55:09;27.50;50.20
73254;DHT22;61474;50.834;4.552;2022-08-19T04:57:35;27.50;49.30
73254;DHT22;61474;50.834;4.552;2022-08-19T05:00:07;27.50;49.40
73254;DHT22;61474;50.834;4.552;2022-08-19T05:02:33;27.50;49.30
73254;DHT22;61474;50.834;4.552;2022-08-19T05:04:58;27.50;49.70
73254;DHT22;61474;50.834;4.552;2022-08-19T05:07:25;27.50;49.50
73254;DHT22;61474;50.834;4.552;2022-08-19T05:09:51;27.40;49.10
73254;DHT22;61474;50.834;4.552;2022-08-19T05:12:17;27.40;49.10
73254;DHT22;61474;50.834;4.552;2022-08-19T05:14:43;27.40;49.20
73254;DHT22;61474;50.834;4.552;2022-08-19T05:17:10;27.40;49.40
73254;DHT22;61474;50.834;4.552;2022-08-19T05:19:36;27.40;49.40
73254;DHT22;61474;50.834;4.552;2022-08-19T05:22:20;27.50;49.40
73254;DHT22;61474;50.834;4.552;2022-08-19T05:25:02;27.40;49.30
73254;DHT22;61474;50.834;4.552;2022-08-19T05:27:28;27.50;49.40
73254;DHT22;61474;50.834;4.552;2022-08-19T05:29:54;27.40;49.20
73254;DHT22;61474;50.834;4.552;2022-08-19T05:32:19;27.30;49.40
73254;DHT22;61474;50.834;4.552;2022-08-19T05:34:47;27.30;49.40
73254;DHT22;61474;50.834;4.552;2022-08-19T05:37:12;27.30;50.20
73254;DHT22;61474;50.834;4.552;2022-08-19T05:39:38;27.30;49.70
73254;DHT22;61474;50.834;4.552;2022-08-19T05:42:09;27.40;49.50
73254;DHT22;61474;50.834;4.552;2022-08-19T05:44:38;27.40;49.50
73254;DHT22;61474;50.834;4.552;2022-08-19T05:47:05;27.40;49.40
73254;DHT22;61474;50.834;4.552;2022-08-19T05:49:32;27.40;49.40
73254;DHT22;61474;50.834;4.552;2022-08-19T05:52:02;27.40;49.50
73254;DHT22;61474;50.834;4.552;2022-08-19T05:54:29;27.40;49.60
73254;DHT22;61474;50.834;4.552;2022-08-19T05:56:56;27.40;49.50
73254;DHT22;61474;50.834;4.552;2022-08-19T05:59:22;27.40;49.50
73254;DHT22;61474;50.834;4.552;2022-08-19T06:01:50;27.30;49.50
73254;DHT22;61474;50.834;4.552;2022-08-19T06:04:17;27.40;49.80
73254;DHT22;61474;50.834;4.552;2022-08-19T06:06:45;27.40;49.50
73254;DHT22;61474;50.834;4.552;2022-08-19T06:09:11;27.40;49.50
73254;DHT22;61474;50.834;4.552;2022-08-19T06:14:09;27.40;49.50
73254;DHT22;61474;50.834;4.552;2022-08-19T06:16:37;27.30;50.00
73254;DHT22;61474;50.834;4.552;2022-08-19T06:19:05;27.30;49.90
73254;DHT22;61474;50.834;4.552;2022-08-19T06:21:33;27.40;49.70
73254;DHT22;61474;50.834;4.552;2022-08-19T06:23:59;27.40;49.50
73254;DHT22;61474;50.834;4.552;2022-08-19T06:26:25;27.40;49.60
73254;DHT22;61474;50.834;4.552;2022-08-19T06:28:51;27.40;49.50
73254;DHT22;61474;50.834;4.552;2022-08-19T06:31:19;27.40;49.50
73254;DHT22;61474;50.834;4.552;2022-08-19T06:33:46;27.30;49.70
73254;DHT22;61474;50.834;4.552;2022-08-19T06:36:35;27.40;49.70
73254;DHT22;61474;50.834;4.552;2022-08-19T06:39:07;27.30;49.80
73254;DHT22;61474;50.834;4.552;2022-08-19T06:41:39;27.40;49.80
73254;DHT22;61474;50.834;4.552;2022-08-19T06:44:05;27.40;50.00
73254;DHT22;61474;50.834;4.552;2022-08-19T06:46:31;27.50;50.00
73254;DHT22;61474;50.834;4.552;2022-08-19T06:48:57;27.50;49.50
73254;DHT22;61474;50.834;4.552;2022-08-19T06:51:23;27.50;49.80
73254;DHT22;61474;50.834;4.552;2022-08-19T06:53:51;27.50;49.70
73254;DHT22;61474;50.834;4.552;2022-08-19T06:56:19;27.50;49.70
73254;DHT22;61474;50.834;4.552;2022-08-19T06:58:47;27.50;49.40
73254;DHT22;61474;50.834;4.552;2022-08-19T07:01:13;27.50;49.70
73254;DHT22;61474;50.834;4.552;2022-08-19T07:03:39;27.50;49.50
73254;DHT22;61474;50.834;4.552;2022-08-19T07:06:07;27.50;49.70
73254;DHT22;61474;50.834;4.552;2022-08-19T07:08:33;27.50;49.80
73254;DHT22;61474;50.834;4.552;2022-08-19T07:10:59;27.60;50.20
73254;DHT22;61474;50.834;4.552;2022-08-19T07:13:25;27.50;50.00
73254;DHT22;61474;50.834;4.552;2022-08-19T07:15:51;27.50;49.50
73254;DHT22;61474;50.834;4.552;2022-08-19T07:18:18;27.60;49.80
73254;DHT22;61474;50.834;4.552;2022-08-19T07:20:45;27.60;49.80
73254;DHT22;61474;50.834;4.552;2022-08-19T07:23:12;27.60;49.50
73254;DHT22;61474;50.834;4.552;2022-08-19T07:25:38;27.60;49.80
73254;DHT22;61474;50.834;4.552;2022-08-19T07:28:04;27.60;49.40
73254;DHT22;61474;50.834;4.552;2022-08-19T07:30:31;27.60;49.40
73254;DHT22;61474;50.834;4.552;2022-08-19T07:32:56;27.60;49.20
73254;DHT22;61474;50.834;4.552;2022-08-19T07:35:22;27.60;49.40
73254;DHT22;61474;50.834;4.552;2022-08-19T07:37:48;27.60;49.60
73254;DHT22;61474;50.834;4.552;2022-08-19T07:40:14;27.60;49.20
73254;DHT22;61474;50.834;4.552;2022-08-19T07:42:40;27.60;49.30
73254;DHT22;61474;50.834;4.552;2022-08-19T07:45:08;27.60;49.70
73254;DHT22;61474;50.834;4.552;2022-08-19T07:47:33;27.60;50.00
73254;DHT22;61474;50.834;4.552;2022-08-19T07:49:59;27.60;50.00
73254;DHT22;61474;50.834;4.552;2022-08-19T07:52:25;27.60;49.80
73254;DHT22;61474;50.834;4.552;2022-08-19T07:54:50;27.60;50.10
73254;DHT22;61474;50.834;4.552;2022-08-19T07:57:16;27.60;50.00
73254;DHT22;61474;50.834;4.552;2022-08-19T07:59:42;27.60;50.40
73254;DHT22;61474;50.834;4.552;2022-08-19T08:02:08;27.60;49.50
73254;DHT22;61474;50.834;4.552;2022-08-19T08:04:34;27.70;49.90
73254;DHT22;61474;50.834;4.552;2022-08-19T08:07:19;27.70;50.00
73254;DHT22;61474;50.834;4.552;2022-08-19T08:10:05;27.70;50.00
73254;DHT22;61474;50.834;4.552;2022-08-19T08:12:35;27.70;49.90
73254;DHT22;61474;50.834;4.552;2022-08-19T08:15:08;27.70;49.90
73254;DHT22;61474;50.834;4.552;2022-08-19T08:17:34;27.70;49.90
73254;DHT22;61474;50.834;4.552;2022-08-19T08:20:04;27.70;49.70
73254;DHT22;61474;50.834;4.552;2022-08-19T08:22:32;27.60;49.50
73254;DHT22;61474;50.834;4.552;2022-08-19T08:25:18;27.60;49.50
73254;DHT22;61474;50.834;4.552;2022-08-19T08:27:45;27.60;49.50
73254;DHT22;61474;50.834;4.552;2022-08-19T08:30:18;27.60;49.50
73254;DHT22;61474;50.834;4.552;2022-08-19T08:32:44;27.60;49.40
73254;DHT22;61474;50.834;4.552;2022-08-19T08:35:13;27.60;50.20
73254;DHT22;61474;50.834;4.552;2022-08-19T08:37:39;27.60;50.00
73254;DHT22;61474;50.834;4.552;2022-08-19T08:40:10;27.60;49.60
73254;DHT22;61474;50.834;4.552;2022-08-19T08:42:46;27.60;49.80
73254;DHT22;61474;50.834;4.552;2022-08-19T08:45:17;27.60;50.00
73254;DHT22;61474;50.834;4.552;2022-08-19T08:47:45;27.60;49.70
73254;DHT22;61474;50.834;4.552;2022-08-19T08:50:24;27.70;50.00
73254;DHT22;61474;50.834;4.552;2022-08-19T08:52:53;27.70;50.70
73254;DHT22;61474;50.834;4.552;2022-08-19T08:55:23;27.70;49.70
73254;DHT22;61474;50.834;4.552;2022-08-19T09:03:27;27.80;49.90
73254;DHT22;61474;50.834;4.552;2022-08-19T09:11:08;27.70;49.60
73254;DHT22;61474;50.834;4.552;2022-08-19T09:16:21;27.70;49.70
73254;DHT22;61474;50.834;4.552;2022-08-19T09:18:57;27.70;50.00
73254;DHT22;61474;50.834;4.552;2022-08-19T09:21:24;27.70;50.40
73254;DHT22;61474;50.834;4.552;2022-08-19T09:23:51;27.80;50.30
73254;DHT22;61474;50.834;4.552;2022-08-19T09:26:21;27.80;49.60
73254;DHT22;61474;50.834;4.552;2022-08-19T09:28:49;27.80;49.60
73254;DHT22;61474;50.834;4.552;2022-08-19T09:31:21;27.80;49.50
73254;DHT22;61474;50.834;4.552;2022-08-19T09:33:47;27.80;49.50
73254;DHT22;61474;50.834;4.552;2022-08-19T09:36:15;27.80;49.50
73254;DHT22;61474;50.834;4.552;2022-08-19T09:38:42;27.70;49.50
73254;DHT22;61474;50.834;4.552;2022-08-19T09:41:11;27.80;50.30
73254;DHT22;61474;50.834;4.552;2022-08-19T09:43:39;27.70;49.70
73254;DHT22;61474;50.834;4.552;2022-08-19T09:46:07;27.80;49.80
73254;DHT22;61474;50.834;4.552;2022-08-19T09:48:40;27.80;50.80
73254;DHT22;61474;50.834;4.552;2022-08-19T09:51:11;27.80;50.60
73254;DHT22;61474;50.834;4.552;2022-08-19T09:53:41;27.80;49.60
73254;DHT22;61474;50.834;4.552;2022-08-19T09:56:07;27.80;49.70
73254;DHT22;61474;50.834;4.552;2022-08-19T09:58:34;27.80;50.00
73254;DHT22;61474;50.834;4.552;2022-08-19T10:01:01;27.80;49.90
73254;DHT22;61474;50.834;4.552;2022-08-19T10:03:29;27.80;50.60
73254;DHT22;61474;50.834;4.552;2022-08-19T10:05:56;27.80;50.00
73254;DHT22;61474;50.834;4.552;2022-08-19T10:08:31;27.80;49.60
73254;DHT22;61474;50.834;4.552;2022-08-19T10:10:57;27.80;49.50
73254;DHT22;61474;50.834;4.552;2022-08-19T10:13:24;27.80;50.40
73254;DHT22;61474;50.834;4.552;2022-08-19T10:15:53;27.80;49.60
73254;DHT22;61474;50.834;4.552;2022-08-19T10:18:20;27.90;49.90
73254;DHT22;61474;50.834;4.552;2022-08-19T10:20:47;27.80;50.00
73254;DHT22;61474;50.834;4.552;2022-08-19T10:23:13;27.90;50.10
73254;DHT22;61474;50.834;4.552;2022-08-19T10:25:40;27.90;50.60
73254;DHT22;61474;50.834;4.552;2022-08-19T10:28:06;27.90;48.80
73254;DHT22;61474;50.834;4.552;2022-08-19T10:30:33;27.90;49.90
73254;DHT22;61474;50.834;4.552;2022-08-19T10:32:58;27.80;48.90
73254;DHT22;61474;50.834;4.552;2022-08-19T10:35:24;27.90;49.20
73254;DHT22;61474;50.834;4.552;2022-08-19T10:37:52;27.80;50.30
73254;DHT22;61474;50.834;4.552;2022-08-19T10:40:18;27.90;49.70
73254;DHT22;61474;50.834;4.552;2022-08-19T10:42:44;27.90;49.90
73254;DHT22;61474;50.834;4.552;2022-08-19T10:45:10;27.90;49.40
73254;DHT22;61474;50.834;4.552;2022-08-19T10:47:35;27.80;49.50
73254;DHT22;61474;50.834;4.552;2022-08-19T10:50:02;27.80;50.10
73254;DHT22;61474;50.834;4.552;2022-08-19T10:52:48;27.80;49.60
73254;DHT22;61474;50.834;4.552;2022-08-19T10:55:14;27.80;49.30
73254;DHT22;61474;50.834;4.552;2022-08-19T10:57:58;27.90;50.60
73254;DHT22;61474;50.834;4.552;2022-08-19T11:00:24;27.80;50.10
73254;DHT22;61474;50.834;4.552;2022-08-19T11:02:51;27.90;50.00
73254;DHT22;61474;50.834;4.552;2022-08-19T11:05:17;27.90;49.90
73254;DHT22;61474;50.834;4.552;2022-08-19T11:07:43;27.80;49.30
73254;DHT22;61474;50.834;4.552;2022-08-19T11:10:11;27.80;49.10
73254;DHT22;61474;50.834;4.552;2022-08-19T11:12:38;27.80;49.10
73254;DHT22;61474;50.834;4.552;2022-08-19T11:15:06;27.80;49.20
73254;DHT22;61474;50.834;4.552;2022-08-19T11:17:33;27.80;49.30
73254;DHT22;61474;50.834;4.552;2022-08-19T11:19:58;27.80;48.50
73254;DHT22;61474;50.834;4.552;2022-08-19T11:22:28;27.80;48.40
73254;DHT22;61474;50.834;4.552;2022-08-19T11:24:53;27.80;48.60
73254;DHT22;61474;50.834;4.552;2022-08-19T11:27:20;27.80;49.10
73254;DHT22;61474;50.834;4.552;2022-08-19T11:29:46;27.90;49.10
73254;DHT22;61474;50.834;4.552;2022-08-19T11:32:11;27.80;48.90
73254;DHT22;61474;50.834;4.552;2022-08-19T11:34:38;27.80;49.10
73254;DHT22;61474;50.834;4.552;2022-08-19T11:37:04;27.80;48.90
73254;DHT22;61474;50.834;4.552;2022-08-19T11:39:33;27.80;48.70
73254;DHT22;61474;50.834;4.552;2022-08-19T11:41:59;27.80;47.20
73254;DHT22;61474;50.834;4.552;2022-08-19T11:44:26;27.80;47.50
73254;DHT22;61474;50.834;4.552;2022-08-19T11:46:52;27.80;47.40
73254;DHT22;61474;50.834;4.552;2022-08-19T11:49:19;27.80;48.00
73254;DHT22;61474;50.834;4.552;2022-08-19T11:51:47;27.80;47.90
73254;DHT22;61474;50.834;4.552;2022-08-19T11:54:14;27.80;48.30
73254;DHT22;61474;50.834;4.552;2022-08-19T11:56:41;27.80;48.20
73254;DHT22;61474;50.834;4.552;2022-08-19T11:59:08;27.80;47.90
73254;DHT22;61474;50.834;4.552;2022-08-19T12:01:33;27.90;48.40
73254;DHT22;61474;50.834;4.552;2022-08-19T12:04:00;27.80;47.30
73254;DHT22;61474;50.834;4.552;2022-08-19T12:06:28;27.90;48.00
73254;DHT22;61474;50.834;4.552;2022-08-19T12:08:59;27.90;47.40
73254;DHT22;61474;50.834;4.552;2022-08-19T12:11:25;27.90;47.60
73254;DHT22;61474;50.834;4.552;2022-08-19T12:13:51;27.80;47.90
73254;DHT22;61474;50.834;4.552;2022-08-19T12:16:20;27.80;47.30
73254;DHT22;61474;50.834;4.552;2022-08-19T12:18:46;27.90;48.00
73254;DHT22;61474;50.834;4.552;2022-08-19T12:21:18;27.90;48.10
73254;DHT22;61474;50.834;4.552;2022-08-19T12:23:47;27.90;48.70
73254;DHT22;61474;50.834;4.552;2022-08-19T12:26:13;27.80;48.50
73254;DHT22;61474;50.834;4.552;2022-08-19T12:28:39;27.80;47.50
73254;DHT22;61474;50.834;4.552;2022-08-19T12:31:05;27.90;46.80
73254;DHT22;61474;50.834;4.552;2022-08-19T12:33:32;27.90;46.30
73254;DHT22;61474;50.834;4.552;2022-08-19T12:36:05;27.80;47.20
73254;DHT22;61474;50.834;4.552;2022-08-19T12:38:33;27.90;46.50
73254;DHT22;61474;50.834;4.552;2022-08-19T12:41:02;27.90;47.00
73254;DHT22;61474;50.834;4.552;2022-08-19T12:43:32;27.80;47.20
73254;DHT22;61474;50.834;4.552;2022-08-19T12:45:58;27.90;47.00
73254;DHT22;61474;50.834;4.552;2022-08-19T12:48:24;27.80;46.90
73254;DHT22;61474;50.834;4.552;2022-08-19T12:50:50;27.80;47.60
73254;DHT22;61474;50.834;4.552;2022-08-19T12:53:15;27.90;47.20
73254;DHT22;61474;50.834;4.552;2022-08-19T12:55:42;27.80;46.70
73254;DHT22;61474;50.834;4.552;2022-08-19T12:58:08;27.90;47.50
73254;DHT22;61474;50.834;4.552;2022-08-19T13:00:34;27.90;47.30
73254;DHT22;61474;50.834;4.552;2022-08-19T13:03:00;27.90;46.80
73254;DHT22;61474;50.834;4.552;2022-08-19T13:05:29;27.90;46.50
73254;DHT22;61474;50.834;4.552;2022-08-19T13:07:56;27.80;46.10
73254;DHT22;61474;50.834;4.552;2022-08-19T13:10:24;27.90;46.40
73254;DHT22;61474;50.834;4.552;2022-08-19T13:12:51;27.90;46.80
73254;DHT22;61474;50.834;4.552;2022-08-19T13:15:18;27.90;46.80
73254;DHT22;61474;50.834;4.552;2022-08-19T13:17:49;27.90;46.20
73254;DHT22;61474;50.834;4.552;2022-08-19T13:20:17;27.90;46.20
73254;DHT22;61474;50.834;4.552;2022-08-19T13:22:43;27.90;47.20
73254;DHT22;61474;50.834;4.552;2022-08-19T13:25:10;27.90;46.30
73254;DHT22;61474;50.834;4.552;2022-08-19T13:27:37;27.90;46.50
73254;DHT22;61474;50.834;4.552;2022-08-19T13:30:04;27.90;45.80
73254;DHT22;61474;50.834;4.552;2022-08-19T13:32:48;27.80;46.30
73254;DHT22;61474;50.834;4.552;2022-08-19T13:35:32;27.80;46.90
73254;DHT22;61474;50.834;4.552;2022-08-19T13:37:58;27.90;46.90
73254;DHT22;61474;50.834;4.552;2022-08-19T13:40:24;27.80;45.90
73254;DHT22;61474;50.834;4.552;2022-08-19T13:42:53;27.90;46.00
73254;DHT22;61474;50.834;4.552;2022-08-19T13:45:21;27.90;46.80
73254;DHT22;61474;50.834;4.552;2022-08-19T13:47:48;27.90;45.80
73254;DHT22;61474;50.834;4.552;2022-08-19T13:50:17;27.90;44.90
73254;DHT22;61474;50.834;4.552;2022-08-19T13:52:43;27.90;45.10
73254;DHT22;61474;50.834;4.552;2022-08-19T13:55:11;27.90;46.20
73254;DHT22;61474;50.834;4.552;2022-08-19T13:57:37;27.80;45.50
73254;DHT22;61474;50.834;4.552;2022-08-19T14:00:09;27.90;44.50
73254;DHT22;61474;50.834;4.552;2022-08-19T14:02:36;27.90;46.40
73254;DHT22;61474;50.834;4.552;2022-08-19T14:05:04;27.90;45.50
73254;DHT22;61474;50.834;4.552;2022-08-19T14:07:30;27.90;45.00
73254;DHT22;61474;50.834;4.552;2022-08-19T14:09:55;27.90;45.30
73254;DHT22;61474;50.834;4.552;2022-08-19T14:12:21;27.90;45.80
73254;DHT22;61474;50.834;4.552;2022-08-19T14:14:47;27.90;45.70
73254;DHT22;61474;50.834;4.552;2022-08-19T14:17:14;27.90;45.30
73254;DHT22;61474;50.834;4.552;2022-08-19T14:19:40;27.90;45.70
73254;DHT22;61474;50.834;4.552;2022-08-19T14:22:06;27.90;45.70
73254;DHT22;61474;50.834;4.552;2022-08-19T14:24:31;27.90;45.10
73254;DHT22;61474;50.834;4.552;2022-08-19T14:27:00;27.90;44.50
73254;DHT22;61474;50.834;4.552;2022-08-19T14:29:26;27.90;45.10
73254;DHT22;61474;50.834;4.552;2022-08-19T14:31:54;27.90;44.40
73254;DHT22;61474;50.834;4.552;2022-08-19T14:34:21;27.90;45.00
73254;DHT22;61474;50.834;4.552;2022-08-19T14:36:47;27.90;45.00
73254;DHT22;61474;50.834;4.552;2022-08-19T14:39:13;27.90;44.10
73254;DHT22;61474;50.834;4.552;2022-08-19T14:41:40;27.90;44.00
73254;DHT22;61474;50.834;4.552;2022-08-19T14:44:07;27.90;44.80
73254;DHT22;61474;50.834;4.552;2022-08-19T14:46:32;27.90;45.00
73254;DHT22;61474;50.834;4.552;2022-08-19T14:48:58;27.90;44.70
73254;DHT22;61474;50.834;4.552;2022-08-19T14:51:24;27.90;43.70
73254;DHT22;61474;50.834;4.552;2022-08-19T14:53:53;28.00;44.70
73254;DHT22;61474;50.834;4.552;2022-08-19T14:56:22;28.00;44.80
73254;DHT22;61474;50.834;4.552;2022-08-19T14:58:49;28.00;44.10
73254;DHT22;61474;50.834;4.552;2022-08-19T15:01:17;28.00;43.80
73254;DHT22;61474;50.834;4.552;2022-08-19T15:03:45;28.00;43.50
73254;DHT22;61474;50.834;4.552;2022-08-19T15:06:11;27.90;44.10
73254;DHT22;61474;50.834;4.552;2022-08-19T15:08:38;27.90;43.90
73254;DHT22;61474;50.834;4.552;2022-08-19T15:11:08;27.90;43.80
73254;DHT22;61474;50.834;4.552;2022-08-19T15:13:35;27.90;44.20
73254;DHT22;61474;50.834;4.552;2022-08-19T15:16:01;27.90;44.30
73254;DHT22;61474;50.834;4.552;2022-08-19T15:18:27;27.90;44.30
73254;DHT22;61474;50.834;4.552;2022-08-19T15:20:53;27.90;44.40
73254;DHT22;61474;50.834;4.552;2022-08-19T15:23:19;27.90;44.90
73254;DHT22;61474;50.834;4.552;2022-08-19T15:25:46;27.90;44.50
73254;DHT22;61474;50.834;4.552;2022-08-19T15:28:11;27.90;44.60
73254;DHT22;61474;50.834;4.552;2022-08-19T15:30:38;27.90;44.30
73254;DHT22;61474;50.834;4.552;2022-08-19T15:33:04;27.90;44.50
73254;DHT22;61474;50.834;4.552;2022-08-19T15:35:30;27.90;44.50
73254;DHT22;61474;50.834;4.552;2022-08-19T15:37:56;27.90;44.10
73254;DHT22;61474;50.834;4.552;2022-08-19T15:40:23;27.90;44.30
73254;DHT22;61474;50.834;4.552;2022-08-19T15:42:49;27.90;44.10
73254;DHT22;61474;50.834;4.552;2022-08-19T15:45:15;27.90;43.30
73254;DHT22;61474;50.834;4.552;2022-08-19T15:47:41;27.90;43.60
73254;DHT22;61474;50.834;4.552;2022-08-19T15:50:09;27.90;44.10